Time;durP1;ratioP1;P1;durP2;ratioP2;P2;SDS_P1;SDS_P2;PMS_P1;PMS_P2;Temp;Humidity;BMP_temperature;BMP_pressure;BME280_temperature;BME280_humidity;BME280_pressure;Samples;Min_cycle;Max_cycle;Signal;HPM_P1;HPM_P2
2022/11/18 00:00:48;;;;;;;12.80;9.50;;;;;;;-0.72;100.00;98231.33;104195;1335;22018;-33
2022/11/18 00:03:15;;;;;;;11.60;8.80;;;;;;;-0.71;100.00;98237.36;103911;1335;521599;-33
2022/11/18 00:05:40;;;;;;;12.80;7.60;;;;;;;-0.70;100.00;98232.83;104326;1336;22535;-36
2022/11/18 00:08:06;;;;;;;28.50;18.40;;;;;;;-0.68;100.00;98232.70;104286;1336;22398;-36
2022/11/18 00:10:31;;;;;;;99.50;65.30;;;;;;;-0.67;100.00;98231.88;104242;1336;22333;-33
2022/11/18 00:15:26;;;;;;;43.90;32.10;;;;;;;-0.70;100.00;98239.21;104015;1336;22181;-36
2022/11/18 00:17:52;;;;;;;33.20;23.40;;;;;;;-0.71;100.00;98233.11;104351;1334;22124;-33
2022/11/18 00:20:17;;;;;;;20.10;11.30;;;;;;;-0.66;100.00;98232.67;104088;1328;22362;-36
2022/11/18 00:22:44;;;;;;;46.30;38.70;;;;;;;-0.65;100.00;98232.20;104294;1328;22189;-33
2022/11/18 00:25:10;;;;;;;29.20;23.00;;;;;;;-0.65;100.00;98232.19;104343;1336;22045;-36
2022/11/18 00:27:36;;;;;;;25.00;16.40;;;;;;;-0.66;100.00;98236.85;104358;1334;22202;-33
2022/11/18 00:30:02;;;;;;;32.90;21.30;;;;;;;-0.62;100.00;98235.96;103780;1334;22489;-36
2022/11/18 00:32:28;;;;;;;108.30;57.90;;;;;;;-0.66;100.00;98238.21;104247;1328;22174;-33
2022/11/18 00:34:53;;;;;;;63.40;37.40;;;;;;;-0.64;100.00;98231.34;104286;1335;22429;-36
2022/11/18 00:37:19;;;;;;;69.00;46.90;;;;;;;-0.64;100.00;98230.38;104330;1334;22208;-33
2022/11/18 00:39:45;;;;;;;24.00;13.70;;;;;;;-0.68;100.00;98227.36;104208;1328;22507;-36
2022/11/18 00:44:39;;;;;;;13.90;9.90;;;;;;;-0.69;100.00;98220.64;104291;1328;22285;-36
2022/11/18 00:47:05;;;;;;;49.60;23.90;;;;;;;-0.71;100.00;98208.85;104318;1329;22212;-32
2022/11/18 00:49:31;;;;;;;14.00;6.90;;;;;;;-0.72;100.00;98199.66;104345;1328;22070;-36
2022/11/18 00:51:56;;;;;;;84.40;42.00;;;;;;;-0.71;100.00;98197.09;104340;1328;22222;-33
2022/11/18 00:54:22;;;;;;;23.80;15.70;;;;;;;-0.72;100.00;98193.19;104337;1320;22529;-36
2022/11/18 00:56:48;;;;;;;16.10;10.60;;;;;;;-0.74;100.00;98188.44;104289;1336;22174;-33
2022/11/18 00:59:13;;;;;;;17.00;12.40;;;;;;;-0.74;100.00;98181.98;104148;1335;22542;-36
2022/11/18 01:01:39;;;;;;;8.50;5.40;;;;;;;-0.77;100.00;98185.05;104028;1321;24366;-36
2022/11/18 01:04:05;;;;;;;10.70;7.20;;;;;;;-0.73;100.00;98184.61;103612;1335;22455;-36
2022/11/18 01:06:30;;;;;;;17.90;8.30;;;;;;;-0.74;100.00;98186.83;104329;1331;22378;-36
2022/11/18 01:08:56;;;;;;;16.30;8.80;;;;;;;-0.74;100.00;98184.14;104292;1335;22543;-36
2022/11/18 01:13:51;;;;;;;16.40;11.60;;;;;;;-0.76;100.00;98169.80;104287;1334;22214;-33
2022/11/18 01:16:18;;;;;;;8.90;4.20;;;;;;;-0.74;100.00;98171.40;104332;1335;22176;-33
2022/11/18 01:18:44;;;;;;;10.70;7.00;;;;;;;-0.71;100.00;98168.10;104327;1335;22892;-36
2022/11/18 01:21:09;;;;;;;15.10;9.30;;;;;;;-0.73;100.00;98170.36;104328;1336;23013;-36
2022/11/18 01:23:35;;;;;;;13.40;7.80;;;;;;;-0.76;100.00;98173.36;104301;1334;22521;-36
2022/11/18 01:26:04;;;;;;;10.00;6.80;;;;;;;-0.76;100.00;98169.50;104168;1334;22160;-32
2022/11/18 01:28:29;;;;;;;9.10;6.60;;;;;;;-0.78;100.00;98165.61;104345;1330;22546;-33
2022/11/18 01:31:01;;;;;;;9.70;5.80;;;;;;;-0.83;100.00;98154.76;104228;1323;22182;-33
2022/11/18 01:33:27;;;;;;;11.90;7.10;;;;;;;-0.83;100.00;98159.70;104312;1328;22509;-36
2022/11/18 01:35:53;;;;;;;15.10;6.60;;;;;;;-0.82;100.00;98163.60;103689;1334;24272;-33
2022/11/18 01:38:18;;;;;;;7.90;5.50;;;;;;;-0.80;100.00;98163.52;104073;1336;22494;-36
2022/11/18 01:40:44;;;;;;;6.80;5.50;;;;;;;-0.81;100.00;98159.98;104340;1328;22256;-33
2022/11/18 01:43:14;;;;;;;12.40;5.00;;;;;;;-0.83;100.00;98164.60;104327;1334;22172;-36
2022/11/18 01:45:41;;;;;;;13.40;7.00;;;;;;;-0.82;100.00;98166.92;104248;1334;22179;-33
2022/11/18 01:48:09;;;;;;;10.70;5.80;;;;;;;-0.91;100.00;98162.35;104314;1327;22156;-36
2022/11/18 01:50:37;;;;;;;7.00;5.60;;;;;;;-0.93;100.00;98158.55;103892;1328;22046;-33
2022/11/18 01:53:06;;;;;;;10.30;6.50;;;;;;;-0.82;100.00;98150.52;104179;1318;22015;-36
2022/11/18 01:55:33;;;;;;;14.00;8.40;;;;;;;-0.94;100.00;98149.85;104334;1328;22171;-36
2022/11/18 01:58:05;;;;;;;18.20;7.80;;;;;;;-0.89;100.00;98157.81;104339;1334;22159;-33
2022/11/18 02:00:30;;;;;;;16.60;9.30;;;;;;;-0.88;100.00;98161.20;104230;1336;23376;-36
2022/11/18 02:02:56;;;;;;;12.80;8.40;;;;;;;-0.93;100.00;98160.27;104258;1334;22455;-33
2022/11/18 02:05:22;;;;;;;10.50;7.50;;;;;;;-0.95;100.00;98162.25;104121;1328;22513;-36
2022/11/18 02:07:48;;;;;;;10.10;7.60;;;;;;;-0.86;100.00;98159.84;104312;1333;22221;-33
2022/11/18 02:10:19;;;;;;;11.10;6.80;;;;;;;-0.90;100.00;98153.13;104230;1334;22338;-33
2022/11/18 02:12:44;;;;;;;5.10;4.50;;;;;;;-0.94;100.00;98149.88;104314;1334;22199;-33
2022/11/18 02:15:10;;;;;;;12.90;6.90;;;;;;;-1.00;100.00;98142.02;104336;1314;22191;-33
2022/11/18 02:17:44;;;;;;;11.90;7.60;;;;;;;-1.01;100.00;98135.10;104326;1328;22353;-36
2022/11/18 02:20:14;;;;;;;;;;;;;;;-0.96;100.00;98131.19;104301;1328;22571;-33
2022/11/18 02:22:47;;;;;;;9.80;6.60;;;;;;;-0.98;100.00;98125.14;104177;1331;22180;-36
2022/11/18 02:25:21;;;;;;;23.70;9.00;;;;;;;-1.08;100.00;98131.27;104345;1334;22888;-36
2022/11/18 02:27:57;;;;;;;17.30;7.60;;;;;;;-1.05;100.00;98130.96;104357;1326;22511;-36
2022/11/18 02:30:22;;;;;;;11.70;8.50;;;;;;;-1.07;100.00;98130.80;104279;1334;22508;-38
2022/11/18 02:32:54;;;;;;;11.10;6.60;;;;;;;-1.03;100.00;98131.23;104130;1328;22059;-32
2022/11/18 02:35:27;;;;;;;12.50;7.40;;;;;;;-1.01;100.00;98128.39;103333;1336;22499;-36
2022/11/18 02:37:57;;;;;;;11.60;7.70;;;;;;;-1.03;100.00;98131.05;104309;1328;22117;-32
2022/11/18 02:40:26;;;;;;;9.10;5.30;;;;;;;-1.09;100.00;98136.63;104313;1334;24268;-33
2022/11/18 02:42:57;;;;;;;14.60;8.80;;;;;;;-1.08;100.00;98130.48;104321;1336;22230;-36
2022/11/18 02:45:22;;;;;;;8.50;5.10;;;;;;;-1.04;100.00;98131.52;104237;1328;22527;-33
2022/11/18 02:47:48;;;;;;;5.80;3.80;;;;;;;-1.04;100.00;98134.20;104321;1328;22525;-33
2022/11/18 02:50:17;;;;;;;75.40;34.10;;;;;;;-1.08;100.00;98135.60;104300;1334;22288;-36
2022/11/18 02:52:42;;;;;;;38.80;20.50;;;;;;;-1.04;100.00;98136.83;104331;1334;22365;-33
2022/11/18 02:55:09;;;;;;;12.40;8.60;;;;;;;-1.09;100.00;98133.34;104364;1334;22188;-32
2022/11/18 02:57:36;;;;;;;7.50;4.10;;;;;;;-1.10;100.00;98138.24;104362;1328;22204;-36
2022/11/18 03:00:02;;;;;;;15.00;5.30;;;;;;;-1.10;100.00;98146.02;104268;1323;22692;-33
2022/11/18 03:02:38;;;;;;;9.60;6.90;;;;;;;-1.11;100.00;98149.13;104359;1335;22200;-36
2022/11/18 03:05:04;;;;;;;46.20;26.20;;;;;;;-1.08;100.00;98152.80;103474;1336;22525;-32
2022/11/18 03:07:31;;;;;;;79.90;49.70;;;;;;;-1.05;100.00;98148.62;103726;1336;22538;-32
2022/11/18 03:09:57;;;;;;;13.80;7.60;;;;;;;-1.05;100.00;98149.20;103605;1334;22121;-36
2022/11/18 03:12:22;;;;;;;82.30;51.90;;;;;;;-1.07;100.00;98145.86;104340;1320;22530;-36
2022/11/18 03:14:50;;;;;;;75.90;48.10;;;;;;;-1.07;100.00;98145.89;104345;1334;22222;-36
2022/11/18 03:17:19;;;;;;;26.10;17.10;;;;;;;-1.07;100.00;98145.77;104234;1326;22560;-32
2022/11/18 03:19:50;;;;;;;109.70;66.70;;;;;;;-1.10;100.00;98150.42;104300;1334;22111;-33
2022/11/18 03:22:19;;;;;;;49.30;31.30;;;;;;;-1.10;100.00;98146.77;104325;1328;22292;-33
2022/11/18 03:24:49;;;;;;;19.00;13.30;;;;;;;-1.10;100.00;98143.90;104320;1336;22700;-33
2022/11/18 03:27:19;;;;;;;81.70;55.20;;;;;;;-1.13;100.00;98141.24;104344;1326;22511;-33
2022/11/18 03:29:48;;;;;;;57.90;35.60;;;;;;;-1.14;100.00;98137.77;104336;1328;22208;-33
2022/11/18 03:32:17;;;;;;;13.30;9.80;;;;;;;-1.12;100.00;98130.65;104351;1334;22220;-33
2022/11/18 03:34:46;;;;;;;91.20;56.20;;;;;;;-1.09;100.00;98124.87;103369;1336;22053;-32
2022/11/18 03:37:13;;;;;;;53.40;31.70;;;;;;;-1.12;100.00;98126.42;103659;1335;22515;-33
2022/11/18 03:39:41;;;;;;;11.50;7.00;;;;;;;-1.13;100.00;98118.35;103480;1335;22229;-32
2022/11/18 03:42:12;;;;;;;65.30;41.70;;;;;;;-1.10;100.00;98114.39;104211;1328;22099;-32
2022/11/18 03:44:38;;;;;;;23.90;11.60;;;;;;;-1.09;100.00;98121.32;104173;1335;22183;-36
2022/11/18 03:47:10;;;;;;;29.70;18.00;;;;;;;-1.09;100.00;98121.54;104296;1334;22223;-32
2022/11/18 03:49:40;;;;;;;106.70;41.80;;;;;;;-1.08;100.00;98132.81;104348;1334;22468;-35
2022/11/18 03:52:09;;;;;;;105.70;47.80;;;;;;;-1.07;100.00;98129.96;104330;1334;22438;-36
2022/11/18 03:54:35;;;;;;;44.80;23.60;;;;;;;-1.06;100.00;98125.39;104319;1328;22054;-32
2022/11/18 03:57:08;;;;;;;17.40;11.30;;;;;;;-1.06;100.00;98121.17;104331;1328;22110;-32
2022/11/18 03:59:36;;;;;;;52.30;28.90;;;;;;;-1.04;100.00;98122.40;104007;1335;22158;-32
2022/11/18 04:02:05;;;;;;;42.00;19.60;;;;;;;-1.07;100.00;98120.43;104295;1335;22523;-34
2022/11/18 04:04:31;;;;;;;11.90;6.60;;;;;;;-1.05;100.00;98121.83;103773;1336;22050;-35
2022/11/18 04:07:00;;;;;;;11.10;7.10;;;;;;;-1.03;100.00;98120.23;104120;1334;22148;-35
2022/11/18 04:09:28;;;;;;;14.40;8.30;;;;;;;-1.10;100.00;98121.21;104283;1329;22340;-32
2022/11/18 04:14:27;;;;;;;15.40;6.40;;;;;;;-1.06;100.00;98119.49;104315;1336;22074;-32
2022/11/18 04:16:53;;;;;;;13.10;6.40;;;;;;;-1.04;100.00;98111.14;104294;1334;22507;-35
2022/11/18 04:19:18;;;;;;;8.40;4.10;;;;;;;-1.04;100.00;98104.48;104336;1334;22522;-35
2022/11/18 04:21:45;;;;;;;8.50;5.80;;;;;;;-1.03;100.00;98101.95;104335;1334;22430;-33
2022/11/18 04:24:11;;;;;;;8.10;4.60;;;;;;;-1.07;100.00;98099.86;104310;1321;22038;-36
2022/11/18 04:26:37;;;;;;;14.80;8.70;;;;;;;-1.08;100.00;98101.19;104297;1328;22048;-36
2022/11/18 04:29:02;;;;;;;12.70;7.90;;;;;;;-1.11;100.00;98098.38;104306;1334;22186;-35
2022/11/18 04:31:28;;;;;;;15.50;8.50;;;;;;;-1.07;100.00;98097.19;104145;1318;22563;-37
2022/11/18 04:33:53;;;;;;;15.90;6.20;;;;;;;-1.05;100.00;98103.49;104307;1330;22179;-33
2022/11/18 04:36:19;;;;;;;19.30;11.80;;;;;;;-1.12;100.00;98105.98;104261;1328;22488;-36
2022/11/18 04:38:45;;;;;;;14.20;6.70;;;;;;;-1.12;100.00;98099.36;104195;1325;22226;-32
2022/11/18 04:41:10;;;;;;;153.80;87.00;;;;;;;-1.13;100.00;98097.27;104325;1327;22594;-35
2022/11/18 04:43:36;;;;;;;98.90;65.80;;;;;;;-1.11;100.00;98096.27;104335;1328;22219;-32
2022/11/18 04:46:01;;;;;;;22.40;11.50;;;;;;;-1.17;100.00;98097.66;104257;1313;22506;-35
2022/11/18 04:48:27;;;;;;;21.60;12.00;;;;;;;-1.20;100.00;98101.67;104286;1334;22083;-33
2022/11/18 04:50:56;;;;;;;23.60;13.20;;;;;;;-1.25;100.00;98098.84;104226;1334;22537;-35
2022/11/18 04:53:21;;;;;;;25.40;12.20;;;;;;;-1.22;100.00;98103.34;104291;1334;22050;-36
2022/11/18 04:55:47;;;;;;;25.10;11.40;;;;;;;-1.18;100.00;98101.83;104279;1335;22505;-36
2022/11/18 04:58:12;;;;;;;23.70;8.20;;;;;;;-1.24;100.00;98105.77;104288;1334;22186;-32
2022/11/18 05:00:38;;;;;;;16.40;8.60;;;;;;;-1.29;100.00;98115.77;104271;1334;22401;-33
2022/11/18 05:03:03;;;;;;;22.00;8.20;;;;;;;-1.26;100.00;98117.73;104336;1334;22411;-35
2022/11/18 05:05:29;;;;;;;16.10;8.50;;;;;;;-1.28;100.00;98109.89;104233;1336;22540;-32
2022/11/18 05:07:54;;;;;;;16.40;8.70;;;;;;;-1.33;100.00;98107.24;104311;1334;22101;-32
2022/11/18 05:10:20;;;;;;;9.70;6.40;;;;;;;-1.33;100.00;98107.80;104297;1328;22137;-34
2022/11/18 05:12:47;;;;;;;18.10;7.30;;;;;;;-1.33;100.00;98110.07;104287;1328;22586;-33
2022/11/18 05:15:15;;;;;;;26.10;9.90;;;;;;;-1.32;100.00;98112.56;103863;1316;22179;-36
2022/11/18 05:17:40;;;;;;;14.60;8.70;;;;;;;-1.30;100.00;98115.73;104212;1336;22531;-36
2022/11/18 05:20:06;;;;;;;19.60;8.10;;;;;;;-1.32;100.00;98121.15;104078;1328;22508;-32
2022/11/18 05:22:32;;;;;;;20.00;11.10;;;;;;;-1.29;100.00;98118.77;104179;1328;22499;-32
2022/11/18 05:24:58;;;;;;;18.60;10.10;;;;;;;-1.26;100.00;98116.71;104305;1334;22352;-35
2022/11/18 05:27:23;;;;;;;17.30;8.30;;;;;;;-1.34;100.00;98118.96;104333;1327;22707;-32
2022/11/18 05:29:48;;;;;;;24.90;11.00;;;;;;;-1.41;100.00;98120.95;104291;1328;23150;-33
2022/11/18 05:32:14;;;;;;;16.50;9.40;;;;;;;-1.35;100.00;98119.05;104220;1336;22504;-33
2022/11/18 05:34:40;;;;;;;26.80;11.90;;;;;;;-1.37;100.00;98128.38;104265;1327;22495;-36
2022/11/18 05:37:05;;;;;;;15.80;9.30;;;;;;;-1.34;100.00;98127.92;104301;1326;22281;-33
2022/11/18 05:39:32;;;;;;;17.90;8.40;;;;;;;-1.38;100.00;98135.45;104217;1333;22520;-32
2022/11/18 05:44:27;;;;;;;21.10;10.90;;;;;;;-1.39;100.00;98146.93;103315;1328;22776;-32
2022/11/18 05:46:54;;;;;;;11.00;7.60;;;;;;;-1.42;100.00;98148.42;104306;1328;22449;-32
2022/11/18 05:49:19;;;;;;;16.80;8.10;;;;;;;-1.42;100.00;98150.63;103759;1334;22496;-32
2022/11/18 05:51:45;;;;;;;14.90;9.20;;;;;;;-1.45;100.00;98156.13;104155;1321;22538;-36
2022/11/18 05:54:10;;;;;;;13.00;6.10;;;;;;;-1.50;100.00;98168.19;104279;1310;22424;-37
2022/11/18 05:56:39;;;;;;;17.50;10.40;;;;;;;-1.52;100.00;98165.25;104231;1327;22037;-33
2022/11/18 05:59:05;;;;;;;22.40;10.60;;;;;;;-1.48;100.00;98159.98;104241;1334;22203;-36
2022/11/18 06:01:31;;;;;;;20.70;11.30;;;;;;;-1.52;100.00;98155.77;104214;1328;22183;-37
2022/11/18 06:03:56;;;;;;;19.20;8.80;;;;;;;-1.51;100.00;98159.20;104154;1336;22168;-37
2022/11/18 06:06:22;;;;;;;16.90;8.60;;;;;;;-1.53;100.00;98159.74;104039;1334;22674;-34
2022/11/18 06:08:54;;;;;;;31.70;11.70;;;;;;;-1.57;100.00;98158.73;104162;1328;22150;-36
2022/11/18 06:11:20;;;;;;;13.70;8.40;;;;;;;-1.67;100.00;98159.33;104226;1336;24963;-32
2022/11/18 06:13:51;;;;;;;14.40;6.80;;;;;;;-1.74;100.00;98160.40;104282;1326;22228;-32
2022/11/18 06:16:18;;;;;;;14.40;7.50;;;;;;;-1.81;100.00;98159.84;104091;1335;22160;-32
2022/11/18 06:18:44;;;;;;;20.60;10.50;;;;;;;-1.82;100.00;98162.91;103706;1330;22519;-38
2022/11/18 06:21:10;;;;;;;24.50;12.90;;;;;;;-1.86;100.00;98170.56;104330;1328;22495;-36
2022/11/18 06:23:36;;;;;;;17.50;8.50;;;;;;;-1.89;100.00;98170.98;104312;1335;22173;-33
2022/11/18 06:26:02;;;;;;;23.70;12.70;;;;;;;-1.96;100.00;98180.36;104324;1334;22017;-36
2022/11/18 06:28:27;;;;;;;19.20;10.00;;;;;;;-1.92;100.00;98181.75;104290;1328;22200;-36
2022/11/18 06:30:53;;;;;;;22.90;10.80;;;;;;;-1.96;100.00;98186.90;104075;1327;22043;-34
2022/11/18 06:33:19;;;;;;;21.60;8.60;;;;;;;-2.03;100.00;98189.02;104294;1334;22096;-32
2022/11/18 06:35:44;;;;;;;18.30;9.50;;;;;;;-2.02;100.00;98192.95;103772;1334;22207;-36
2022/11/18 06:38:10;;;;;;;20.50;10.60;;;;;;;-2.06;100.00;98192.66;104148;1328;22446;-33
2022/11/18 06:40:36;;;;;;;23.90;10.80;;;;;;;-2.05;100.00;98195.70;103971;1334;22134;-36
2022/11/18 06:45:35;;;;;;;32.70;14.80;;;;;;;-2.03;100.00;98201.46;104246;1336;22513;-36
2022/11/18 06:48:01;;;;;;;18.70;8.70;;;;;;;-2.03;100.00;98206.88;103702;1336;22473;-33
2022/11/18 06:50:27;;;;;;;16.90;9.40;;;;;;;-2.06;100.00;98215.05;104327;1334;22254;-33
2022/11/18 06:52:53;;;;;;;29.60;14.70;;;;;;;-2.06;100.00;98222.10;104224;1336;22184;-33
2022/11/18 06:55:18;;;;;;;21.30;9.10;;;;;;;-2.07;100.00;98228.14;104228;1327;22508;-36
2022/11/18 06:57:44;;;;;;;19.20;9.50;;;;;;;-2.08;100.00;98229.47;104189;1334;22088;-32
2022/11/18 07:00:11;;;;;;;21.00;10.90;;;;;;;-2.13;100.00;98237.05;104155;1334;22534;-35
2022/11/18 07:02:36;;;;;;;26.30;16.00;;;;;;;-2.07;100.00;98239.68;104302;1328;22055;-33
2022/11/18 07:05:03;;;;;;;17.20;7.50;;;;;;;-2.06;100.00;98237.66;104196;1336;22516;-33
2022/11/18 07:07:29;;;;;;;21.60;11.10;;;;;;;-2.07;100.00;98239.90;104217;1336;22447;-36
2022/11/18 07:09:54;;;;;;;27.80;15.10;;;;;;;-2.08;100.00;98243.65;104129;1326;22501;-32
2022/11/18 07:12:20;;;;;;;25.90;13.80;;;;;;;-2.08;100.00;98249.27;104222;1328;22513;-33
2022/11/18 07:14:45;;;;;;;32.30;12.60;;;;;;;-2.17;100.00;98252.23;104071;1325;23212;-32
2022/11/18 07:17:11;;;;;;;15.50;7.80;;;;;;;-2.13;100.00;98250.60;104270;1336;22498;-32
2022/11/18 07:19:38;;;;;;;15.50;9.30;;;;;;;-2.14;100.00;98254.94;103822;1328;22368;-33
2022/11/18 07:22:04;;;;;;;23.40;10.80;;;;;;;-2.14;100.00;98247.18;104293;1329;22175;-33
2022/11/18 07:24:29;;;;;;;12.20;7.40;;;;;;;-2.19;100.00;98244.52;104243;1334;22191;-36
2022/11/18 07:26:55;;;;;;;29.90;16.20;;;;;;;-2.23;100.00;98248.09;104050;1336;22217;-36
2022/11/18 07:29:21;;;;;;;21.30;9.90;;;;;;;-2.18;100.00;98253.41;104158;1328;22534;-33
2022/11/18 07:31:46;;;;;;;20.70;11.60;;;;;;;-2.23;100.00;98248.80;104251;1334;22510;-33
2022/11/18 07:34:12;;;;;;;24.50;10.00;;;;;;;-2.23;100.00;98248.27;104111;1335;22548;-33
2022/11/18 07:36:38;;;;;;;28.30;13.80;;;;;;;-2.22;100.00;98247.99;104168;1334;22695;-33
2022/11/18 07:39:05;;;;;;;18.50;10.30;;;;;;;-2.15;100.00;98246.12;104064;1333;22598;-33
2022/11/18 07:41:31;;;;;;;20.90;10.60;;;;;;;-2.22;100.00;98257.64;104143;1328;22061;-33
2022/11/18 07:43:59;;;;;;;21.20;11.50;;;;;;;-2.24;100.00;98261.70;104167;1335;23722;-36
2022/11/18 07:46:26;;;;;;;13.00;7.60;;;;;;;-2.23;100.00;98252.95;104212;1331;23896;-36
2022/11/18 07:48:54;;;;;;;17.20;9.30;;;;;;;-2.29;100.00;98251.79;104182;1333;22296;-36
2022/11/18 07:51:21;;;;;;;17.70;10.90;;;;;;;-2.30;100.00;98242.77;103528;1331;22163;-36
2022/11/18 07:53:47;;;;;;;24.30;13.50;;;;;;;-2.29;100.00;98238.61;103852;1334;24443;-36
2022/11/18 07:56:13;;;;;;;19.30;9.40;;;;;;;-2.34;100.00;98241.17;104141;1334;22197;-33
2022/11/18 07:58:39;;;;;;;27.60;13.50;;;;;;;-2.35;100.00;98235.86;104217;1327;22465;-32
2022/11/18 08:01:07;;;;;;;34.70;15.30;;;;;;;-2.37;100.00;98236.23;104191;1334;22234;-33
2022/11/18 08:03:32;;;;;;;15.40;9.70;;;;;;;-2.38;100.00;98231.41;103400;1336;439817;-34
2022/11/18 08:05:59;;;;;;;15.50;6.80;;;;;;;-2.40;100.00;98241.41;103730;1334;22507;-34
2022/11/18 08:08:24;;;;;;;31.70;13.80;;;;;;;-2.35;100.00;98241.80;104216;1318;22212;-36
2022/11/18 08:10:50;;;;;;;30.00;14.60;;;;;;;-2.19;100.00;98234.88;104235;1334;22130;-36
2022/11/18 08:13:16;;;;;;;17.50;11.80;;;;;;;-2.33;100.00;98238.09;104312;1323;22519;-35
2022/11/18 08:15:42;;;;;;;27.70;13.80;;;;;;;-2.32;100.00;98235.96;104199;1333;22986;-32
2022/11/18 08:18:08;;;;;;;24.90;13.50;;;;;;;-2.26;100.00;98232.36;104260;1333;22265;-35
2022/11/18 08:20:34;;;;;;;19.20;12.20;;;;;;;-2.25;100.00;98235.29;104206;1334;22480;-31
2022/11/18 08:23:00;;;;;;;23.50;12.40;;;;;;;-2.27;100.00;98236.16;104168;1336;22503;-35
2022/11/18 08:25:25;;;;;;;25.90;14.90;;;;;;;-2.29;100.00;98236.48;104024;1336;22537;-35
2022/11/18 08:27:51;;;;;;;34.40;14.60;;;;;;;-2.26;100.00;98232.70;104214;1336;22241;-35
2022/11/18 08:30:17;;;;;;;38.00;16.10;;;;;;;-2.27;100.00;98236.19;103938;1335;22518;-32
2022/11/18 08:32:43;;;;;;;14.10;7.70;;;;;;;-2.29;100.00;98239.38;104236;1327;22039;-33
2022/11/18 08:35:09;;;;;;;31.40;13.90;;;;;;;-2.28;100.00;98238.48;104166;1336;22337;-35
2022/11/18 08:37:34;;;;;;;37.70;16.30;;;;;;;-2.21;100.00;98236.50;104191;1342;22293;-34
2022/11/18 08:40:00;;;;;;;22.80;11.60;;;;;;;-2.25;100.00;98238.29;103755;1328;22071;-32
2022/11/18 08:42:27;;;;;;;24.80;12.40;;;;;;;-2.22;100.00;98241.16;104201;1328;22585;-35
2022/11/18 08:44:53;;;;;;;47.90;22.10;;;;;;;-2.23;100.00;98248.20;104213;1336;22536;-32
2022/11/18 08:47:18;;;;;;;21.20;11.90;;;;;;;-2.23;100.00;98246.65;104262;1336;22564;-35
2022/11/18 08:49:44;;;;;;;19.90;11.30;;;;;;;-2.16;99.98;98247.25;104081;1335;24280;-36
2022/11/18 08:52:09;;;;;;;20.60;12.10;;;;;;;-2.14;99.72;98251.96;103669;1334;22554;-35
2022/11/18 08:54:35;;;;;;;22.00;10.10;;;;;;;-2.20;99.97;98255.47;103657;1327;22515;-32
2022/11/18 08:57:01;;;;;;;23.70;12.40;;;;;;;-2.14;99.88;98252.24;104259;1336;22501;-32
2022/11/18 08:59:26;;;;;;;16.20;8.70;;;;;;;-2.13;99.52;98248.13;104172;1336;22525;-37
2022/11/18 09:01:52;;;;;;;20.20;10.80;;;;;;;-2.16;99.22;98249.13;104296;1328;22209;-32
2022/11/18 09:04:18;;;;;;;24.40;12.00;;;;;;;-2.14;98.94;98251.26;103755;1336;22524;-35
2022/11/18 09:06:43;;;;;;;27.40;9.70;;;;;;;-2.12;98.59;98242.04;103793;1334;22552;-32
2022/11/18 09:09:09;;;;;;;29.90;12.40;;;;;;;-2.06;98.52;98245.19;103560;1339;22162;-35
2022/11/18 09:11:35;;;;;;;10.70;7.30;;;;;;;-2.08;97.99;98247.83;104077;1337;22454;-36
2022/11/18 09:14:01;;;;;;;9.20;5.00;;;;;;;-2.09;97.62;98249.41;104050;1324;24281;-35
2022/11/18 09:16:28;;;;;;;33.10;11.00;;;;;;;-2.12;97.47;98259.15;104132;1334;22695;-33
2022/11/18 09:18:54;;;;;;;20.10;9.90;;;;;;;-1.99;97.04;98266.48;104046;1334;22294;-35
2022/11/18 09:21:20;;;;;;;19.70;11.80;;;;;;;-1.92;95.79;98262.81;104151;1339;22051;-37
2022/11/18 09:23:46;;;;;;;24.50;10.70;;;;;;;-1.95;95.21;98269.73;103867;1334;22577;-32
2022/11/18 09:26:13;;;;;;;21.40;10.10;;;;;;;-2.07;94.88;98275.96;103660;1331;22548;-31
2022/11/18 09:28:39;;;;;;;20.00;9.10;;;;;;;-2.05;94.73;98271.05;103920;1336;22497;-32
2022/11/18 09:31:06;;;;;;;31.60;13.90;;;;;;;-2.16;94.19;98271.26;103977;1334;22526;-32
2022/11/18 09:33:33;;;;;;;18.60;9.90;;;;;;;-2.14;94.14;98272.13;103928;1334;22451;-36
2022/11/18 09:35:59;;;;;;;19.60;9.50;;;;;;;-2.15;93.22;98278.02;103336;1331;22207;-36
2022/11/18 09:38:25;;;;;;;16.60;11.00;;;;;;;-2.15;93.90;98276.71;104230;1338;22528;-34
2022/11/18 09:40:55;;;;;;;23.40;11.70;;;;;;;-2.17;93.70;98276.80;104272;1338;22186;-32
2022/11/18 09:43:29;;;;;;;19.10;8.80;;;;;;;-2.16;93.86;98275.10;104266;1334;22858;-36
2022/11/18 09:45:57;;;;;;;21.10;12.00;;;;;;;-2.11;94.00;98282.64;104162;1336;22587;-31
2022/11/18 09:49:11;;;;;;;15.50;9.50;;;;;;;-2.08;93.33;98288.55;104173;1337;22485;-37
2022/11/18 09:51:10;;;;;;;22.70;9.10;;;;;;;-1.95;92.29;98282.75;104214;1335;22580;-37
2022/11/18 09:53:35;;;;;;;21.90;12.10;;;;;;;-2.10;91.91;98279.92;103406;1328;22529;-36
2022/11/18 09:56:01;;;;;;;18.60;8.60;;;;;;;-2.09;92.39;98278.79;104273;1337;22034;-34
2022/11/18 09:58:31;;;;;;;15.80;8.10;;;;;;;-2.08;92.33;98285.23;104214;1339;22070;-35
2022/11/18 10:00:57;;;;;;;24.10;9.90;;;;;;;-2.23;92.36;98292.63;104022;1334;22141;-32
2022/11/18 10:03:26;;;;;;;24.70;11.90;;;;;;;-2.23;92.48;98287.14;103705;1338;22489;-32
2022/11/18 10:05:55;;;;;;;33.20;13.50;;;;;;;-2.07;92.23;98292.52;104278;1334;22527;-36
2022/11/18 10:09:01;;;;;;;19.10;10.40;;;;;;;-2.19;92.15;98292.04;104299;1335;22190;-35
2022/11/18 10:11:32;;;;;;;24.70;12.80;;;;;;;-2.10;92.28;98286.59;104233;1334;22546;-33
2022/11/18 10:14:05;;;;;;;11.60;5.10;;;;;;;-2.05;92.26;98289.33;104254;1331;22647;-32
2022/11/18 10:16:40;;;;;;;14.50;8.20;;;;;;;-2.06;92.52;98296.05;104278;1339;22716;-36
2022/11/18 10:19:13;;;;;;;22.10;8.90;;;;;;;-2.06;92.42;98293.27;104230;1340;22509;-34
2022/11/18 10:21:44;;;;;;;20.00;12.20;;;;;;;-2.05;92.99;98295.14;104295;1319;22172;-32
2022/11/18 10:24:15;;;;;;;23.60;11.50;;;;;;;-1.93;92.43;98293.10;104167;1339;22336;-32
2022/11/18 10:26:40;;;;;;;21.40;9.10;;;;;;;-2.00;92.75;98299.16;104202;1330;22512;-32
2022/11/18 10:29:08;;;;;;;15.10;9.00;;;;;;;-1.98;92.16;98296.56;104192;1338;22589;-32
2022/11/18 10:31:38;;;;;;;21.20;8.40;;;;;;;-1.84;92.43;98296.28;103364;1333;22557;-40
2022/11/18 10:34:04;;;;;;;17.10;7.20;;;;;;;-1.74;93.08;98298.18;104128;1334;22252;-32
2022/11/18 10:36:32;;;;;;;22.80;10.50;;;;;;;-1.76;92.49;98295.76;104030;1337;22015;-35
2022/11/18 10:39:12;;;;;;;20.20;12.10;;;;;;;-1.67;92.33;98294.32;103982;1334;22510;-31
2022/11/18 10:41:42;;;;;;;15.30;8.00;;;;;;;-1.67;92.64;98296.08;104136;1326;22564;-36
2022/11/18 10:44:15;;;;;;;16.00;9.10;;;;;;;-1.63;91.67;98299.70;103924;1333;22185;-31
2022/11/18 10:46:41;;;;;;;19.90;11.10;;;;;;;-1.58;91.57;98298.96;104175;1336;23248;-35
2022/11/18 10:49:15;;;;;;;18.80;10.50;;;;;;;-1.66;91.91;98299.99;103742;1336;22500;-36
2022/11/18 10:51:43;;;;;;;21.30;13.20;;;;;;;-1.79;91.30;98301.05;104295;1339;22268;-35
2022/11/18 10:54:13;;;;;;;18.40;11.40;;;;;;;-1.74;91.66;98298.54;104205;1331;22494;-31
2022/11/18 10:56:43;;;;;;;21.10;12.00;;;;;;;-1.68;91.49;98303.34;104299;1336;22411;-32
2022/11/18 10:59:16;;;;;;;18.00;11.20;;;;;;;-1.62;91.16;98300.56;104051;1336;22114;-35
2022/11/18 11:01:42;;;;;;;16.30;11.90;;;;;;;-1.73;91.24;98306.66;104287;1339;22437;-34
2022/11/18 11:04:11;;;;;;;26.20;13.00;;;;;;;-1.68;92.09;98307.79;104303;1327;22192;-35
2022/11/18 11:06:37;;;;;;;33.10;13.90;;;;;;;-1.58;91.36;98310.89;104071;1331;22058;-32
2022/11/18 11:09:09;;;;;;;39.80;16.90;;;;;;;-1.70;91.27;98312.86;104121;1336;22491;-33
2022/11/18 11:11:38;;;;;;;35.10;17.70;;;;;;;-1.64;92.04;98310.71;104214;1336;22929;-33
2022/11/18 11:14:09;;;;;;;22.80;13.20;;;;;;;-1.60;91.54;98309.50;104254;1336;22512;-36
2022/11/18 11:16:40;;;;;;;38.70;16.20;;;;;;;-1.56;90.67;98306.59;104276;1312;22556;-36
2022/11/18 11:19:06;;;;;;;28.90;15.60;;;;;;;-1.63;90.17;98302.89;104367;1336;22511;-36
2022/11/18 11:25:13;;;;;;;33.90;18.30;;;;;;;-1.72;89.92;98307.94;103371;1344;545848;-31